createdAt,value
2023-01-19T03:07:18.993Z,31.62
2023-01-19T03:08:33.144Z,26.19
2023-01-19T03:17:56.252Z,32.69
2023-01-19T03:42:32.655Z,28.62
2023-01-19T03:44:21.864Z,29.75
2023-01-19T03:45:19.430Z,26.37
2023-01-19T03:47:33.279Z,27.56
2023-01-19T04:14:09.993Z,34.06
2023-01-19T04:45:32.717Z,32.50
2023-01-19T04:46:37.214Z,25.44
2023-01-19T04:47:45.167Z,28.06
2023-01-19T04:49:04.743Z,24.75
2023-01-19T05:11:16.462Z,54.00
2023-01-19T05:11:39.023Z,48.93
2023-01-19T05:17:49.015Z,44.44
2023-01-19T05:18:34.263Z,33.81
2023-01-19T05:19:39.974Z,36.44
2023-01-19T05:21:36.238Z,35.19
2023-01-19T05:35:35.188Z,29.50
2023-01-19T05:36:34.968Z,27.75
2023-01-19T05:37:41.637Z,33.33
2023-01-19T05:38:48.403Z,28.38
2023-01-19T05:39:53.671Z,24.63
2023-01-19T05:40:59.754Z,45.31
2023-01-19T05:42:41.643Z,43.60
2023-01-19T05:46:06.760Z,29.19
2023-01-19T05:47:13.495Z,43.67
2023-01-19T05:48:18.838Z,59.31
2023-01-19T05:49:28.715Z,46.19
2023-01-19T05:50:37.474Z,32.94
2023-01-19T05:52:02.936Z,49.44
2023-01-19T05:54:16.856Z,27.07
2023-01-19T05:55:48.174Z,24.75
2023-01-19T05:58:06.349Z,17.81
2023-01-19T05:59:10.984Z,20.25
2023-01-19T06:00:18.730Z,20.37
2023-01-19T06:01:28.268Z,15.69
2023-01-19T06:02:33.975Z,19.19
2023-01-19T06:03:40.232Z,16.56
2023-01-19T06:04:50.186Z,17.37
2023-01-19T06:06:00.211Z,19.50
2023-01-19T06:07:29.146Z,14.94
2023-01-19T06:08:34.781Z,15.25
2023-01-19T06:09:45.175Z,13.13
2023-01-19T06:10:52.660Z,17.56
2023-01-19T06:12:00.863Z,20.69
2023-01-19T06:13:21.834Z,18.75
2023-01-19T06:14:27.666Z,18.81
2023-01-19T06:15:20.603Z,15.81
2023-01-19T06:16:26.321Z,20.75
2023-01-19T06:17:33.898Z,15.25
2023-01-19T06:18:40.841Z,21.31
2023-01-19T06:19:48.872Z,22.31
2023-01-19T06:20:56.280Z,19.87
2023-01-19T06:22:02.050Z,16.56
2023-01-19T06:23:13.487Z,23.44
2023-01-19T06:24:27.031Z,18.19
2023-01-19T06:26:45.251Z,16.37
2023-01-19T06:27:12.803Z,17.87
2023-01-19T06:28:02.490Z,22.37
2023-01-19T06:29:23.307Z,23.06
2023-01-19T06:30:11.777Z,24.81
2023-01-19T06:31:17.290Z,28.44
2023-01-19T06:32:26.160Z,23.06
2023-01-19T06:33:28.968Z,23.69
2023-01-19T06:34:33.209Z,27.37
2023-01-19T06:35:38.908Z,25.19
2023-01-19T06:37:02.847Z,27.69
2023-01-19T06:37:54.943Z,26.19
2023-01-19T06:39:02.139Z,25.62
2023-01-19T06:40:12.048Z,31.94
2023-01-19T06:41:23.144Z,28.38
2023-01-19T06:42:33.762Z,24.37
2023-01-19T06:43:54.193Z,23.75
2023-01-19T06:44:44.952Z,24.44
2023-01-19T06:45:54.654Z,22.62
2023-01-19T06:47:47.982Z,24.19
2023-01-19T06:48:12.017Z,22.06
2023-01-19T06:49:22.234Z,26.20
2023-01-19T06:50:40.589Z,27.87
2023-01-19T06:51:38.925Z,23.81
2023-01-19T06:52:44.604Z,29.56
2023-01-19T06:54:02.547Z,25.37
2023-01-19T06:56:35.176Z,22.75
2023-01-19T06:57:37.298Z,23.31
2023-01-19T06:58:44.134Z,25.37
2023-01-19T06:59:46.604Z,29.40
2023-01-19T07:00:53.324Z,25.94
2023-01-19T07:02:28.006Z,27.25
2023-01-19T07:04:42.073Z,25.37
2023-01-19T07:05:47.710Z,19.81
2023-01-19T07:06:59.236Z,20.44
2023-01-19T07:07:58.658Z,23.31
2023-01-19T07:09:37.025Z,23.31
2023-01-19T07:10:24.797Z,22.87
2023-01-19T07:11:32.494Z,18.25
2023-01-19T07:12:44.706Z,20.94
2023-01-19T07:34:37.633Z,14.44
2023-01-19T07:35:45.072Z,24.87
2023-01-19T07:36:52.276Z,21.37
2023-01-19T07:37:57.927Z,22.69
2023-01-19T07:39:08.790Z,28.38
2023-01-19T12:42:14.660Z,40.00
2023-01-19T12:43:21.826Z,41.44
2023-01-19T12:45:20.866Z,44.88
2023-01-19T12:45:55.319Z,45.44
2023-01-19T13:29:02.657Z,29.87
2023-01-19T13:29:34.346Z,33.00
2023-01-19T13:30:41.517Z,21.87
2023-01-19T13:33:17.598Z,30.07
2023-01-19T13:34:30.374Z,30.19
2023-01-19T13:52:18.418Z,30.81
2023-01-19T13:53:32.082Z,35.31
2023-01-19T13:55:54.177Z,36.19
2023-01-19T14:26:50.295Z,43.94
2023-01-19T14:28:20.603Z,35.13
2023-01-19T14:44:22.925Z,34.13
2023-01-19T14:45:08.147Z,46.13
2023-01-19T14:51:03.111Z,37.00
2023-01-19T14:52:02.235Z,37.63
2023-01-19T14:53:11.566Z,35.56
2023-01-19T14:54:22.225Z,38.44
2023-01-19T14:55:36.557Z,35.88
2023-01-19T14:56:41.838Z,37.44
2023-01-19T14:57:48.187Z,39.00
2023-01-19T15:13:24.440Z,27.81
2023-01-19T15:34:21.849Z,38.75
2023-01-19T15:35:49.179Z,41.81
2023-01-19T15:38:11.244Z,36.06
2023-01-19T15:39:27.348Z,38.25
2023-01-19T15:40:34.400Z,33.06
2023-01-19T15:41:43.484Z,36.69
2023-01-19T16:16:10.677Z,34.81
2023-01-19T16:18:37.643Z,37.69
2023-01-19T16:19:58.313Z,38.50
2023-01-19T20:33:06.155Z,30.31
2023-01-19T20:47:55.697Z,28.69
2023-01-19T20:48:56.747Z,26.12
2023-01-19T20:50:08.773Z,24.75
2023-01-19T21:56:50.698Z,22.81
2023-01-19T21:58:46.101Z,23.56
2023-01-19T22:00:00.399Z,25.25
2023-01-19T22:01:53.057Z,25.81
2023-01-19T22:02:29.865Z,24.12
